createdAt,value
2022-12-23T00:00:38.110Z,10.32
2022-12-23T00:03:04.928Z,9.15
2022-12-23T00:05:37.877Z,9.00
2022-12-23T00:08:05.922Z,10.10
2022-12-23T00:10:32.795Z,10.25
2022-12-23T00:13:18.253Z,10.77
2022-12-23T00:15:44.892Z,9.27
2022-12-23T00:18:11.555Z,9.80
2022-12-23T00:20:38.261Z,9.20
2022-12-23T00:23:04.907Z,9.82
2022-12-23T00:25:42.006Z,9.88
2022-12-23T00:28:20.151Z,9.10
2022-12-23T00:30:47.036Z,9.52
2022-12-23T00:33:19.282Z,9.75
2022-12-23T00:35:46.250Z,8.95
2022-12-23T00:38:13.748Z,8.52
2022-12-23T00:40:59.533Z,8.82
2022-12-23T00:43:26.229Z,8.35
2022-12-23T00:45:52.900Z,8.50
2022-12-23T00:48:38.229Z,8.77
2022-12-23T00:51:05.032Z,8.55
2022-12-23T00:53:31.779Z,8.07
2022-12-23T00:55:58.631Z,7.78
2022-12-23T00:58:26.519Z,7.45
2022-12-23T01:01:12.567Z,7.80
2022-12-23T01:03:58.028Z,6.05
2022-12-23T01:06:24.787Z,6.90
2022-12-23T01:08:51.571Z,6.43
2022-12-23T01:11:19.514Z,6.35
2022-12-23T01:13:46.219Z,7.07
2022-12-23T01:16:17.707Z,7.22
2022-12-23T01:18:45.036Z,7.32
2022-12-23T01:21:13.881Z,7.25
2022-12-23T01:23:45.837Z,7.90
2022-12-23T01:26:12.617Z,8.80
2022-12-23T01:28:39.291Z,7.55
2022-12-23T01:31:09.563Z,8.20
2022-12-23T01:33:36.446Z,7.70
2022-12-23T01:36:05.216Z,8.05
2022-12-23T01:38:31.911Z,8.18
2022-12-23T01:40:58.864Z,8.02
2022-12-23T01:43:48.663Z,8.07
2022-12-23T01:46:16.433Z,8.02
2022-12-23T01:48:52.058Z,8.25
2022-12-23T01:51:25.778Z,7.70
2022-12-23T01:53:59.409Z,7.03
2022-12-23T01:56:38.733Z,7.35
2022-12-23T01:59:32.005Z,8.27
2022-12-23T02:02:17.783Z,7.88
2022-12-23T02:04:44.822Z,8.57
2022-12-23T02:07:31.940Z,8.95
2022-12-23T02:09:58.961Z,8.13
2022-12-23T02:12:43.578Z,9.73
2022-12-23T02:15:37.416Z,9.23
2022-12-23T02:18:38.420Z,8.30
2022-12-23T02:21:31.894Z,8.13
2022-12-23T02:24:22.748Z,8.35
2022-12-23T02:27:08.209Z,8.60
2022-12-23T02:29:53.026Z,8.43
2022-12-23T02:32:43.394Z,8.77
2022-12-23T02:35:29.332Z,8.82
2022-12-23T02:38:11.864Z,8.35
2022-12-23T02:41:09.724Z,8.88
2022-12-23T02:43:46.718Z,8.20
2022-12-23T02:46:24.311Z,8.75
2022-12-23T02:49:00.557Z,8.77
2022-12-23T02:51:31.773Z,8.32
2022-12-23T02:54:04.101Z,9.50
2022-12-23T02:56:33.281Z,9.27
2022-12-23T02:59:12.200Z,8.73
2022-12-23T03:01:39.944Z,9.15
2022-12-23T03:04:07.076Z,8.77
2022-12-23T03:06:39.706Z,8.82
2022-12-23T03:09:07.312Z,8.75
2022-12-23T03:12:00.085Z,9.75
2022-12-23T03:14:42.465Z,8.75
2022-12-23T03:17:48.652Z,10.05
2022-12-23T03:20:26.569Z,10.38
2022-12-23T03:23:02.600Z,9.70
2022-12-23T03:25:38.456Z,9.40
2022-12-23T03:28:15.321Z,9.75
2022-12-23T03:30:46.466Z,9.75
2022-12-23T03:33:29.824Z,8.73
2022-12-23T03:36:02.126Z,9.27
2022-12-23T03:38:33.042Z,9.73
2022-12-23T03:41:06.537Z,8.93
2022-12-23T03:43:54.806Z,8.25
2022-12-23T03:46:44.838Z,8.05
2022-12-23T03:49:16.593Z,8.02
2022-12-23T03:51:56.232Z,8.60
2022-12-23T03:54:37.053Z,8.67
2022-12-23T03:57:07.404Z,8.40
2022-12-23T03:59:38.191Z,8.45
2022-12-23T04:02:32.040Z,7.35
2022-12-23T04:05:24.959Z,7.50
2022-12-23T04:08:18.679Z,6.53
2022-12-23T04:10:46.419Z,7.40
2022-12-23T04:13:13.409Z,7.47
2022-12-23T04:15:41.695Z,7.18
2022-12-23T04:18:10.459Z,6.90
2022-12-23T04:20:37.540Z,7.65
2022-12-23T04:23:04.486Z,7.78
2022-12-23T04:25:31.147Z,8.00
2022-12-23T04:27:57.782Z,7.68
2022-12-23T04:30:28.063Z,8.27
2022-12-23T04:33:00.260Z,7.53
2022-12-23T04:35:30.624Z,7.25
2022-12-23T04:37:57.245Z,7.80
2022-12-23T04:40:23.965Z,7.78
2022-12-23T04:42:50.692Z,8.20
2022-12-23T04:45:17.417Z,8.32
2022-12-23T04:47:44.143Z,8.23
2022-12-23T04:50:14.754Z,8.50
2022-12-23T04:52:42.444Z,9.07
2022-12-23T04:55:10.647Z,7.93
2022-12-23T04:57:37.548Z,8.98
2022-12-23T05:00:05.485Z,8.60
2022-12-23T05:02:32.295Z,8.98
2022-12-23T05:04:59.071Z,9.60
2022-12-23T05:07:25.702Z,9.50
2022-12-23T05:09:52.363Z,9.70
2022-12-23T05:12:19.110Z,9.45
2022-12-23T05:14:45.842Z,9.52
2022-12-23T05:17:12.476Z,9.23
2022-12-23T05:19:39.158Z,9.40
2022-12-23T05:22:05.890Z,10.05
2022-12-23T05:24:32.652Z,9.75
2022-12-23T05:27:00.357Z,10.02
2022-12-23T05:29:28.523Z,9.65
2022-12-23T05:31:55.286Z,9.82
2022-12-23T05:34:22.189Z,9.18
2022-12-23T05:36:48.908Z,9.20
2022-12-23T05:39:15.586Z,8.13
2022-12-23T05:41:42.292Z,8.13
2022-12-23T05:44:08.939Z,7.72
2022-12-23T05:46:35.673Z,7.50
2022-12-23T05:49:02.384Z,7.95
2022-12-23T05:51:29.090Z,7.40
2022-12-23T05:53:55.864Z,7.78
2022-12-23T05:56:22.583Z,7.03
2022-12-23T05:58:49.247Z,7.22
2022-12-23T06:01:16.081Z,6.90
2022-12-23T06:03:43.096Z,6.55
2022-12-23T06:06:09.843Z,5.75
2022-12-23T06:08:36.590Z,6.07
2022-12-23T06:11:06.452Z,5.45
2022-12-23T06:13:33.199Z,5.70
2022-12-23T06:15:59.816Z,5.57
2022-12-23T06:18:26.441Z,5.40
2022-12-23T06:20:53.156Z,5.68
2022-12-23T06:23:19.869Z,5.70
2022-12-23T06:25:46.593Z,5.22
2022-12-23T06:28:13.237Z,5.18
2022-12-23T06:30:54.493Z,5.57
2022-12-23T06:33:21.393Z,5.10
2022-12-23T06:35:48.139Z,5.18
2022-12-23T06:38:14.893Z,5.22
2022-12-23T06:40:41.684Z,5.13
2022-12-23T06:43:08.445Z,5.20
2022-12-23T06:45:35.134Z,5.10
2022-12-23T06:48:01.853Z,4.97
2022-12-23T06:50:29.554Z,5.20
2022-12-23T06:52:56.346Z,5.80
2022-12-23T06:55:23.383Z,5.50
2022-12-23T06:57:50.027Z,5.47
2022-12-23T07:00:17.069Z,5.88
2022-12-23T07:02:43.949Z,5.57
2022-12-23T07:05:10.756Z,5.85
2022-12-23T07:07:37.506Z,5.72
2022-12-23T07:10:04.802Z,5.40
2022-12-23T07:12:31.452Z,5.55
2022-12-23T07:14:58.177Z,5.40
2022-12-23T07:17:24.826Z,5.50
2022-12-23T07:19:51.555Z,5.85
2022-12-23T07:22:18.207Z,5.93
2022-12-23T07:24:44.886Z,6.03
2022-12-23T07:27:11.608Z,6.00
2022-12-23T07:29:38.461Z,6.10
2022-12-23T07:32:05.165Z,5.55
2022-12-23T07:34:32.075Z,5.82
2022-12-23T07:36:58.873Z,5.20
2022-12-23T07:39:25.534Z,5.80
2022-12-23T07:42:08.988Z,6.10
2022-12-23T07:44:38.894Z,6.07
2022-12-23T07:47:05.555Z,5.93
2022-12-23T07:49:32.190Z,6.30
2022-12-23T07:51:58.936Z,6.30
2022-12-23T07:54:25.654Z,5.78
2022-12-23T07:56:52.389Z,6.07
2022-12-23T07:59:19.037Z,6.18
2022-12-23T08:01:45.917Z,5.70
2022-12-23T08:04:12.689Z,6.25
2022-12-23T08:06:41.383Z,5.72
2022-12-23T08:09:09.471Z,6.40
2022-12-23T08:11:36.210Z,5.95
2022-12-23T08:14:02.876Z,6.30
2022-12-23T08:16:29.613Z,6.38
2022-12-23T08:18:56.459Z,6.72
2022-12-23T08:21:23.189Z,6.57
2022-12-23T08:23:51.287Z,6.93
2022-12-23T08:26:27.452Z,7.53
2022-12-23T08:28:54.135Z,7.13
2022-12-23T08:31:22.297Z,6.90
2022-12-23T08:33:52.444Z,7.32
2022-12-23T08:36:23.794Z,8.65
2022-12-23T08:38:52.758Z,8.45
2022-12-23T08:41:27.501Z,8.32
2022-12-23T08:43:55.862Z,8.38
2022-12-23T08:46:23.523Z,8.02
2022-12-23T08:48:50.814Z,9.52
2022-12-23T08:51:20.496Z,9.10
2022-12-23T08:53:54.806Z,9.20
2022-12-23T08:56:27.333Z,9.63
2022-12-23T08:58:55.290Z,9.63
2022-12-23T09:01:24.474Z,9.50
2022-12-23T09:03:52.732Z,10.20
2022-12-23T09:06:29.496Z,10.30
2022-12-23T09:08:57.653Z,9.57
2022-12-23T09:11:26.688Z,9.60
2022-12-23T09:13:53.916Z,9.20
2022-12-23T09:16:21.086Z,9.95
2022-12-23T09:18:47.814Z,9.60
2022-12-23T09:21:18.083Z,10.10
2022-12-23T09:23:44.785Z,10.82
2022-12-23T09:26:30.347Z,10.25
2022-12-23T09:28:57.891Z,9.93
2022-12-23T09:31:29.291Z,10.80
2022-12-23T09:33:59.328Z,11.10
2022-12-23T09:36:26.034Z,10.77
2022-12-23T09:38:57.478Z,10.50
2022-12-23T09:41:46.254Z,11.65
2022-12-23T09:44:27.445Z,9.70
2022-12-23T09:47:18.236Z,11.18
2022-12-23T09:49:52.540Z,11.27
2022-12-23T09:52:41.970Z,10.43
2022-12-23T09:55:11.924Z,18.85
2022-12-23T09:57:56.698Z,10.20
2022-12-23T10:00:25.112Z,9.85
2022-12-23T10:03:06.760Z,10.00
2022-12-23T10:06:18.672Z,9.40
2022-12-23T10:08:48.727Z,8.65
2022-12-23T10:11:17.904Z,9.43
2022-12-23T10:13:58.337Z,9.18
2022-12-23T10:19:08.990Z,20.00
2022-12-23T10:21:45.388Z,9.07
2022-12-23T10:24:21.612Z,9.57
2022-12-23T10:26:57.720Z,11.10
2022-12-23T10:29:32.421Z,8.63
2022-12-23T10:32:29.435Z,8.77
2022-12-23T10:35:22.034Z,7.57
2022-12-23T10:38:01.985Z,8.10
2022-12-23T10:40:40.802Z,7.75
2022-12-23T10:43:17.229Z,8.07
2022-12-23T10:45:58.302Z,8.10
2022-12-23T10:48:59.258Z,8.00
2022-12-23T10:51:33.976Z,8.10
2022-12-23T10:54:08.606Z,7.65
2022-12-23T10:56:35.603Z,8.70
2022-12-23T10:59:06.443Z,8.45
2022-12-23T11:01:35.445Z,7.93
2022-12-23T11:04:16.310Z,8.38
2022-12-23T11:06:47.254Z,8.53
2022-12-23T11:09:24.848Z,7.93
2022-12-23T11:12:02.940Z,8.60
2022-12-23T11:14:54.443Z,9.10
2022-12-23T11:17:28.461Z,9.07
2022-12-23T11:20:10.274Z,9.55
2022-12-23T11:22:51.813Z,10.20
2022-12-23T11:25:33.250Z,9.90
2022-12-23T11:28:16.484Z,10.50
2022-12-23T11:30:57.279Z,11.73
2022-12-23T11:33:28.591Z,11.43
2022-12-23T11:36:12.732Z,13.38
2022-12-23T11:38:52.536Z,12.68
2022-12-23T11:41:26.628Z,12.20
2022-12-23T11:44:00.573Z,12.98
2022-12-23T11:46:33.731Z,14.32
2022-12-23T11:49:18.972Z,14.40
2022-12-23T11:51:48.493Z,15.25
2022-12-23T11:54:18.375Z,16.43
2022-12-23T11:56:47.999Z,15.35
2022-12-23T11:59:39.887Z,16.63
2022-12-23T12:02:30.983Z,17.17
2022-12-23T12:05:16.427Z,16.85
2022-12-23T12:07:46.666Z,16.77
2022-12-23T12:10:27.965Z,17.25
2022-12-23T12:13:02.738Z,16.95
2022-12-23T12:15:46.645Z,15.85
2022-12-23T12:18:19.214Z,16.70
2022-12-23T12:20:50.734Z,15.63
2022-12-23T12:23:24.408Z,16.40
2022-12-23T12:26:00.678Z,13.73
2022-12-23T12:28:47.022Z,13.85
2022-12-23T12:31:26.204Z,12.55
2022-12-23T12:34:07.997Z,13.13
2022-12-23T12:36:41.156Z,12.85
2022-12-23T12:39:17.267Z,13.65
2022-12-23T12:42:03.589Z,13.02
2022-12-23T12:44:43.406Z,13.93
2022-12-23T12:47:44.715Z,14.15
2022-12-23T12:50:07.016Z,13.75
2022-12-23T12:52:40.526Z,14.07
2022-12-23T12:55:15.142Z,14.82
2022-12-23T12:57:42.274Z,14.82
2022-12-23T13:00:17.634Z,14.55
2022-12-23T13:03:00.240Z,14.60
2022-12-23T13:05:39.584Z,15.60
2022-12-23T13:08:25.353Z,15.30
2022-12-23T13:10:58.481Z,14.35
2022-12-23T13:13:53.543Z,15.63
2022-12-23T13:16:21.277Z,12.55
2022-12-23T13:19:05.742Z,12.73
2022-12-23T13:21:38.108Z,12.10
2022-12-23T13:24:52.252Z,11.60
2022-12-23T13:27:35.736Z,11.52
2022-12-23T13:30:17.655Z,11.00
2022-12-23T13:32:52.657Z,11.68
2022-12-23T13:35:52.255Z,10.57
2022-12-23T13:38:49.695Z,10.00
2022-12-23T13:41:29.315Z,10.50
2022-12-23T13:44:00.533Z,15.47
2022-12-23T13:46:51.283Z,10.35
2022-12-23T13:49:39.620Z,12.15
2022-12-23T13:52:43.761Z,11.07
2022-12-23T13:55:38.469Z,11.77
2022-12-23T13:58:13.644Z,12.93
2022-12-23T14:00:40.457Z,11.70
2022-12-23T14:03:10.148Z,11.95
2022-12-23T14:05:52.711Z,11.27
2022-12-23T14:08:19.474Z,11.55
2022-12-23T14:10:55.471Z,12.02
2022-12-23T14:13:26.763Z,11.73
2022-12-23T14:16:15.115Z,23.00
2022-12-23T14:19:01.388Z,14.82
2022-12-23T14:21:38.803Z,11.20
2022-12-23T14:24:23.983Z,12.43
2022-12-23T14:26:59.812Z,12.07
2022-12-23T14:29:53.383Z,12.48
2022-12-23T14:32:24.942Z,11.65
2022-12-23T14:35:16.748Z,11.40
2022-12-23T14:38:03.447Z,11.38
2022-12-23T14:40:42.039Z,11.48
2022-12-23T14:43:44.224Z,11.48
2022-12-23T14:46:43.732Z,10.60
2022-12-23T14:49:40.151Z,11.07
2022-12-23T14:52:48.346Z,11.57
2022-12-23T14:55:32.999Z,13.10
2022-12-23T14:58:13.161Z,13.43
2022-12-23T15:01:15.226Z,12.88
2022-12-23T15:03:54.550Z,15.23
2022-12-23T15:06:40.150Z,17.55
2022-12-23T15:09:08.548Z,19.33
2022-12-23T15:11:37.405Z,14.95
2022-12-23T15:14:10.313Z,15.90
2022-12-23T15:16:40.494Z,13.90
2022-12-23T15:19:25.467Z,14.30
2022-12-23T15:22:17.833Z,11.98
2022-12-23T15:24:47.819Z,12.98
2022-12-23T15:27:28.904Z,11.65
2022-12-23T15:29:56.713Z,11.95
2022-12-23T15:32:25.250Z,11.90
2022-12-23T15:34:53.142Z,13.50
2022-12-23T15:37:27.723Z,12.45
2022-12-23T15:40:04.529Z,14.68
2022-12-23T15:42:35.454Z,12.80
2022-12-23T15:45:23.673Z,35.50
2022-12-23T15:47:51.040Z,14.57
2022-12-23T15:50:19.369Z,13.13
2022-12-23T15:52:48.882Z,14.75
2022-12-23T15:55:31.406Z,14.98
2022-12-23T15:57:59.930Z,18.45
2022-12-23T16:00:39.551Z,18.00
2022-12-23T16:03:25.161Z,14.87
2022-12-23T16:05:52.309Z,14.85
2022-12-23T16:08:29.031Z,14.10
2022-12-23T16:11:14.401Z,12.60
2022-12-23T16:13:58.065Z,12.77
2022-12-23T16:16:40.791Z,19.85
2022-12-23T16:19:46.194Z,13.50
2022-12-23T16:22:15.794Z,12.43
2022-12-23T16:25:20.999Z,15.30
2022-12-23T16:27:54.186Z,22.90
2022-12-23T16:30:34.247Z,15.27
2022-12-23T16:33:06.939Z,15.73
2022-12-23T16:35:37.895Z,13.18
2022-12-23T16:38:12.264Z,44.03
2022-12-23T16:40:39.534Z,70.22
2022-12-23T16:43:06.279Z,131.85
2022-12-23T16:45:34.848Z,38.55
2022-12-23T16:48:07.273Z,20.35
2022-12-23T16:50:33.949Z,12.27
2022-12-23T16:53:00.724Z,13.68
2022-12-23T16:55:27.466Z,17.98
2022-12-23T16:57:54.183Z,22.40
2022-12-23T17:00:21.061Z,19.80
2022-12-23T17:02:48.342Z,21.38
2022-12-23T17:05:17.369Z,18.02
2022-12-23T17:07:45.631Z,17.80
2022-12-23T17:10:14.512Z,18.60
2022-12-23T17:12:41.929Z,15.23
2022-12-23T17:15:20.210Z,13.68
2022-12-23T17:17:49.019Z,12.27
2022-12-23T17:20:16.874Z,13.23
2022-12-23T17:22:47.330Z,14.52
2022-12-23T17:27:44.893Z,12.60
2022-12-23T17:30:21.784Z,12.60
2022-12-23T17:32:56.657Z,14.38
2022-12-23T17:35:24.815Z,10.63
2022-12-23T17:37:52.218Z,10.23
2022-12-23T17:40:19.419Z,10.23
2022-12-23T17:42:47.068Z,9.60
2022-12-23T17:45:26.635Z,10.55
2022-12-23T17:47:53.537Z,9.63
2022-12-23T17:50:20.681Z,9.73
2022-12-23T17:52:47.583Z,9.63
2022-12-23T17:55:21.652Z,9.20
2022-12-23T17:57:48.743Z,9.07
2022-12-23T18:00:24.112Z,8.07
2022-12-23T18:02:54.779Z,8.27
2022-12-23T18:05:29.823Z,8.23
2022-12-23T18:08:00.829Z,7.50
2022-12-23T18:10:32.488Z,7.22
2022-12-23T18:13:09.585Z,6.97
2022-12-23T18:15:39.335Z,5.88
2022-12-23T18:18:28.594Z,6.72
2022-12-23T18:20:58.937Z,5.68
2022-12-23T18:23:29.710Z,5.93
2022-12-23T18:25:56.941Z,6.10
2022-12-23T18:28:24.471Z,5.10
2022-12-23T18:30:52.695Z,5.40
2022-12-23T18:33:20.671Z,5.15
2022-12-23T18:35:49.576Z,14.27
2022-12-23T18:38:17.719Z,5.13
2022-12-23T18:40:44.801Z,4.50
2022-12-23T18:43:19.984Z,5.78
2022-12-23T18:45:52.472Z,4.90
2022-12-23T18:48:21.442Z,5.63
2022-12-23T18:50:48.294Z,5.82
2022-12-23T18:53:23.357Z,6.15
2022-12-23T18:55:51.762Z,5.75
2022-12-23T18:58:18.610Z,6.82
2022-12-23T19:00:45.941Z,6.45
2022-12-23T19:03:27.777Z,6.63
2022-12-23T19:05:55.895Z,7.60
2022-12-23T19:08:27.188Z,7.55
2022-12-23T19:10:55.748Z,6.93
2022-12-23T19:13:22.962Z,9.32
2022-12-23T19:15:50.188Z,6.80
2022-12-23T19:18:19.140Z,6.15
2022-12-23T19:20:47.211Z,6.93
2022-12-23T19:23:14.951Z,6.68
2022-12-23T19:25:46.180Z,6.57
2022-12-23T19:28:19.114Z,6.70
2022-12-23T19:30:45.906Z,6.57
2022-12-23T19:33:13.291Z,6.88
2022-12-23T19:35:43.409Z,7.53
2022-12-23T19:38:10.663Z,7.15
2022-12-23T19:40:37.537Z,8.00
2022-12-23T19:43:04.584Z,6.75
2022-12-23T19:45:31.474Z,7.35
2022-12-23T19:47:58.133Z,6.00
2022-12-23T19:50:26.566Z,7.53
2022-12-23T19:52:59.230Z,6.45
2022-12-23T19:55:25.891Z,6.40
2022-12-23T19:57:52.581Z,6.35
2022-12-23T20:00:21.303Z,6.18
2022-12-23T20:02:58.315Z,7.35
2022-12-23T20:05:25.658Z,6.95
2022-12-23T20:07:52.308Z,6.30
2022-12-23T20:10:18.991Z,9.05
2022-12-23T20:12:45.747Z,6.03
2022-12-23T20:15:12.438Z,6.85
2022-12-23T20:17:40.772Z,6.07
2022-12-23T20:20:08.116Z,6.20
2022-12-23T20:22:34.897Z,5.63
2022-12-23T20:25:01.610Z,5.68
2022-12-23T20:27:29.381Z,6.80
2022-12-23T20:29:56.137Z,6.43
2022-12-23T20:32:22.779Z,5.90
2022-12-23T20:34:50.176Z,5.18
2022-12-23T20:37:17.552Z,5.28
2022-12-23T20:39:44.294Z,6.45
2022-12-23T20:42:14.157Z,5.93
2022-12-23T20:44:40.870Z,5.10
2022-12-23T20:47:07.661Z,5.78
2022-12-23T20:49:34.419Z,5.25
2022-12-23T20:52:01.507Z,4.55
2022-12-23T20:54:33.259Z,4.68
2022-12-23T20:57:02.588Z,3.42
2022-12-23T20:59:29.502Z,3.72
2022-12-23T21:01:58.834Z,3.42
2022-12-23T21:04:25.637Z,4.32
2022-12-23T21:06:54.794Z,4.03
2022-12-23T21:09:21.577Z,4.15
2022-12-23T21:11:48.435Z,3.80
2022-12-23T21:14:16.083Z,3.60
2022-12-23T21:16:43.673Z,3.55
2022-12-23T21:19:18.681Z,3.35
2022-12-23T21:21:46.128Z,3.75
2022-12-23T21:24:12.990Z,3.97
2022-12-23T21:26:39.775Z,3.65
2022-12-23T21:29:08.303Z,3.85
2022-12-23T21:31:38.568Z,2.88
2022-12-23T21:34:05.988Z,3.88
2022-12-23T21:36:36.114Z,3.22
2022-12-23T21:39:05.146Z,2.78
2022-12-23T21:41:37.176Z,3.13
2022-12-23T21:44:05.859Z,3.15
2022-12-23T21:46:32.706Z,3.28
2022-12-23T21:49:00.971Z,3.17
2022-12-23T21:51:39.397Z,2.95
2022-12-23T21:54:08.196Z,1.92
2022-12-23T21:56:35.076Z,3.72
2022-12-23T21:59:06.864Z,3.20
2022-12-23T22:01:34.255Z,3.58
2022-12-23T22:04:01.066Z,2.70
2022-12-23T22:06:38.993Z,3.22
2022-12-23T22:09:07.698Z,3.95
2022-12-23T22:11:35.876Z,3.05
2022-12-23T22:14:04.460Z,2.97
2022-12-23T22:16:31.792Z,3.08
2022-12-23T22:19:00.369Z,2.78
2022-12-23T22:21:29.717Z,1.52
2022-12-23T22:23:56.741Z,4.38
2022-12-23T22:26:29.898Z,3.20
2022-12-23T22:28:58.671Z,2.22
2022-12-23T22:31:29.203Z,2.38
2022-12-23T22:34:05.308Z,2.70
2022-12-23T22:36:32.659Z,2.03
2022-12-23T22:39:01.661Z,2.78
2022-12-23T22:41:30.382Z,4.05
2022-12-23T22:43:58.618Z,2.70
2022-12-23T22:46:26.152Z,2.97
2022-12-23T22:48:53.410Z,2.80
2022-12-23T22:51:24.853Z,3.45
2022-12-23T22:53:51.650Z,3.15
2022-12-23T22:56:20.003Z,3.30
2022-12-23T22:58:47.220Z,2.58
2022-12-23T23:01:22.341Z,3.25
2022-12-23T23:03:56.665Z,3.47
2022-12-23T23:06:25.739Z,2.95
2022-12-23T23:08:52.619Z,3.78
2022-12-23T23:11:20.461Z,3.95
2022-12-23T23:13:47.177Z,2.28
2022-12-23T23:16:14.029Z,3.25
2022-12-23T23:18:40.729Z,3.90
2022-12-23T23:21:09.243Z,3.10
2022-12-23T23:23:36.010Z,3.15
2022-12-23T23:26:02.987Z,3.78
2022-12-23T23:28:31.849Z,3.33
2022-12-23T23:31:23.831Z,3.65
2022-12-23T23:33:45.317Z,4.72
2022-12-23T23:36:12.019Z,3.85
2022-12-23T23:38:38.829Z,3.22
2022-12-23T23:41:05.614Z,3.10
2022-12-23T23:43:32.428Z,4.40
2022-12-23T23:45:59.307Z,3.53
2022-12-23T23:48:26.023Z,4.18
2022-12-23T23:50:52.655Z,2.55
2022-12-23T23:53:19.514Z,3.80
2022-12-23T23:55:46.179Z,3.10
2022-12-23T23:58:13.025Z,3.33
